sensor_id;sensor_type;location;lat;lon;timestamp;temperature;humidity
25939;DHT22;13739;51.172;4.466;2023-02-22T00:00:20;7.10;99.90
25939;DHT22;13739;51.172;4.466;2023-02-22T00:03:05;7.10;99.90
25939;DHT22;13739;51.172;4.466;2023-02-22T00:05:32;6.90;99.90
25939;DHT22;13739;51.172;4.466;2023-02-22T00:07:57;6.90;99.90
25939;DHT22;13739;51.172;4.466;2023-02-22T00:10:25;7.10;99.90
25939;DHT22;13739;51.172;4.466;2023-02-22T00:12:53;7.10;99.90
25939;DHT22;13739;51.172;4.466;2023-02-22T00:15:23;6.90;99.90
25939;DHT22;13739;51.172;4.466;2023-02-22T00:17:53;6.80;99.90
25939;DHT22;13739;51.172;4.466;2023-02-22T00:20:19;6.80;99.90
25939;DHT22;13739;51.172;4.466;2023-02-22T00:22:48;6.80;99.90
25939;DHT22;13739;51.172;4.466;2023-02-22T00:25:18;6.80;99.90
25939;DHT22;13739;51.172;4.466;2023-02-22T00:27:45;6.90;99.90
25939;DHT22;13739;51.172;4.466;2023-02-22T00:30:23;6.90;99.90
25939;DHT22;13739;51.172;4.466;2023-02-22T00:32:51;6.70;99.90
25939;DHT22;13739;51.172;4.466;2023-02-22T00:35:20;6.60;99.90
25939;DHT22;13739;51.172;4.466;2023-02-22T00:37:50;6.70;99.90
25939;DHT22;13739;51.172;4.466;2023-02-22T00:40:21;6.80;99.90
25939;DHT22;13739;51.172;4.466;2023-02-22T00:42:48;6.90;99.90
25939;DHT22;13739;51.172;4.466;2023-02-22T00:45:24;6.90;99.90
25939;DHT22;13739;51.172;4.466;2023-02-22T00:47:50;6.80;99.90
25939;DHT22;13739;51.172;4.466;2023-02-22T00:50:17;6.90;99.90
25939;DHT22;13739;51.172;4.466;2023-02-22T00:52:44;6.90;99.90
25939;DHT22;13739;51.172;4.466;2023-02-22T00:55:16;7.00;99.90
25939;DHT22;13739;51.172;4.466;2023-02-22T00:57:42;6.90;99.90
25939;DHT22;13739;51.172;4.466;2023-02-22T01:00:13;7.00;99.90
25939;DHT22;13739;51.172;4.466;2023-02-22T01:02:41;7.00;99.90
25939;DHT22;13739;51.172;4.466;2023-02-22T01:05:09;6.90;99.90
25939;DHT22;13739;51.172;4.466;2023-02-22T01:07:37;6.80;99.90
25939;DHT22;13739;51.172;4.466;2023-02-22T01:10:04;6.60;99.90
25939;DHT22;13739;51.172;4.466;2023-02-22T01:12:30;6.70;99.90
25939;DHT22;13739;51.172;4.466;2023-02-22T01:14:56;6.60;99.90
25939;DHT22;13739;51.172;4.466;2023-02-22T01:17:26;6.60;99.90
25939;DHT22;13739;51.172;4.466;2023-02-22T01:19:53;6.50;99.90
25939;DHT22;13739;51.172;4.466;2023-02-22T01:22:19;6.60;99.90
25939;DHT22;13739;51.172;4.466;2023-02-22T01:24:46;6.80;99.90
25939;DHT22;13739;51.172;4.466;2023-02-22T01:27:13;6.70;99.90
25939;DHT22;13739;51.172;4.466;2023-02-22T01:29:38;6.60;99.90
25939;DHT22;13739;51.172;4.466;2023-02-22T01:32:04;6.70;99.90
25939;DHT22;13739;51.172;4.466;2023-02-22T01:34:31;6.60;99.90
25939;DHT22;13739;51.172;4.466;2023-02-22T01:36:58;6.60;99.90
25939;DHT22;13739;51.172;4.466;2023-02-22T01:39:24;6.70;99.90
25939;DHT22;13739;51.172;4.466;2023-02-22T01:41:50;6.70;99.90
25939;DHT22;13739;51.172;4.466;2023-02-22T01:44:33;6.70;99.90
25939;DHT22;13739;51.172;4.466;2023-02-22T01:47:01;6.80;99.90
25939;DHT22;13739;51.172;4.466;2023-02-22T01:52:04;6.70;99.90
25939;DHT22;13739;51.172;4.466;2023-02-22T01:54:37;6.80;99.90
25939;DHT22;13739;51.172;4.466;2023-02-22T01:57:17;6.80;99.90
25939;DHT22;13739;51.172;4.466;2023-02-22T01:59:49;6.80;99.90
25939;DHT22;13739;51.172;4.466;2023-02-22T02:02:15;6.70;99.90
25939;DHT22;13739;51.172;4.466;2023-02-22T02:04:43;6.80;99.90
25939;DHT22;13739;51.172;4.466;2023-02-22T02:07:12;6.80;99.90
25939;DHT22;13739;51.172;4.466;2023-02-22T02:09:46;6.90;99.90
25939;DHT22;13739;51.172;4.466;2023-02-22T02:12:16;6.90;99.90
25939;DHT22;13739;51.172;4.466;2023-02-22T02:14:43;6.80;99.90
25939;DHT22;13739;51.172;4.466;2023-02-22T02:17:11;6.90;99.90
25939;DHT22;13739;51.172;4.466;2023-02-22T02:20:02;6.80;99.90
25939;DHT22;13739;51.172;4.466;2023-02-22T02:22:51;6.70;99.90
25939;DHT22;13739;51.172;4.466;2023-02-22T02:28:30;6.70;99.90
25939;DHT22;13739;51.172;4.466;2023-02-22T02:39:56;6.50;99.90
25939;DHT22;13739;51.172;4.466;2023-02-22T02:42:29;6.40;99.90
25939;DHT22;13739;51.172;4.466;2023-02-22T02:45:08;6.40;99.90
25939;DHT22;13739;51.172;4.466;2023-02-22T02:47:44;6.30;99.90
25939;DHT22;13739;51.172;4.466;2023-02-22T02:50:30;6.30;99.90
25939;DHT22;13739;51.172;4.466;2023-02-22T02:53:01;6.50;99.90
25939;DHT22;13739;51.172;4.466;2023-02-22T02:55:29;6.50;99.90
25939;DHT22;13739;51.172;4.466;2023-02-22T02:57:56;6.50;99.90
25939;DHT22;13739;51.172;4.466;2023-02-22T03:00:25;6.50;99.90
25939;DHT22;13739;51.172;4.466;2023-02-22T03:03:10;6.50;99.90
25939;DHT22;13739;51.172;4.466;2023-02-22T03:11:27;6.60;99.90
25939;DHT22;13739;51.172;4.466;2023-02-22T03:14:15;6.50;99.90
25939;DHT22;13739;51.172;4.466;2023-02-22T03:19:44;6.40;99.90
25939;DHT22;13739;51.172;4.466;2023-02-22T03:22:40;6.50;99.90
25939;DHT22;13739;51.172;4.466;2023-02-22T03:25:19;6.50;99.90
25939;DHT22;13739;51.172;4.466;2023-02-22T03:27:50;6.40;99.90
25939;DHT22;13739;51.172;4.466;2023-02-22T03:30:21;6.40;99.90
25939;DHT22;13739;51.172;4.466;2023-02-22T03:32:55;6.40;99.90
25939;DHT22;13739;51.172;4.466;2023-02-22T03:35:25;6.60;99.90
25939;DHT22;13739;51.172;4.466;2023-02-22T03:37:57;6.40;99.90
25939;DHT22;13739;51.172;4.466;2023-02-22T03:40:34;6.40;99.90
25939;DHT22;13739;51.172;4.466;2023-02-22T03:43:11;6.60;99.90
25939;DHT22;13739;51.172;4.466;2023-02-22T03:45:42;6.50;99.90
25939;DHT22;13739;51.172;4.466;2023-02-22T03:48:21;6.50;99.90
25939;DHT22;13739;51.172;4.466;2023-02-22T03:50:48;6.50;99.90
25939;DHT22;13739;51.172;4.466;2023-02-22T03:53:16;6.50;99.90
25939;DHT22;13739;51.172;4.466;2023-02-22T03:55:43;6.60;99.90
25939;DHT22;13739;51.172;4.466;2023-02-22T03:58:11;6.40;99.90
25939;DHT22;13739;51.172;4.466;2023-02-22T04:00:38;6.50;99.90
25939;DHT22;13739;51.172;4.466;2023-02-22T04:03:09;6.40;99.90
25939;DHT22;13739;51.172;4.466;2023-02-22T04:05:35;6.40;99.90
25939;DHT22;13739;51.172;4.466;2023-02-22T04:08:01;6.40;99.90
25939;DHT22;13739;51.172;4.466;2023-02-22T04:10:26;6.30;99.90
25939;DHT22;13739;51.172;4.466;2023-02-22T04:12:52;6.40;99.90
25939;DHT22;13739;51.172;4.466;2023-02-22T04:15:21;6.50;99.90
25939;DHT22;13739;51.172;4.466;2023-02-22T04:17:47;6.50;99.90
25939;DHT22;13739;51.172;4.466;2023-02-22T04:20:14;6.50;99.90
25939;DHT22;13739;51.172;4.466;2023-02-22T04:22:44;6.30;99.90
25939;DHT22;13739;51.172;4.466;2023-02-22T04:25:10;6.30;99.90
25939;DHT22;13739;51.172;4.466;2023-02-22T04:27:35;6.30;99.90
25939;DHT22;13739;51.172;4.466;2023-02-22T04:30:01;6.40;99.90
25939;DHT22;13739;51.172;4.466;2023-02-22T04:32:27;6.30;99.90
25939;DHT22;13739;51.172;4.466;2023-02-22T04:34:53;6.10;99.90
25939;DHT22;13739;51.172;4.466;2023-02-22T04:37:19;6.10;99.90
25939;DHT22;13739;51.172;4.466;2023-02-22T04:39:44;6.10;99.90
25939;DHT22;13739;51.172;4.466;2023-02-22T04:42:10;6.10;99.90
25939;DHT22;13739;51.172;4.466;2023-02-22T04:44:35;6.10;99.90
25939;DHT22;13739;51.172;4.466;2023-02-22T04:47:01;6.20;99.90
25939;DHT22;13739;51.172;4.466;2023-02-22T04:49:27;6.20;99.90
25939;DHT22;13739;51.172;4.466;2023-02-22T04:51:53;6.20;99.90
25939;DHT22;13739;51.172;4.466;2023-02-22T04:54:18;6.20;99.90
25939;DHT22;13739;51.172;4.466;2023-02-22T04:56:44;6.10;99.90
25939;DHT22;13739;51.172;4.466;2023-02-22T04:59:10;6.10;99.90
25939;DHT22;13739;51.172;4.466;2023-02-22T05:01:37;6.10;99.90
25939;DHT22;13739;51.172;4.466;2023-02-22T05:04:04;6.00;99.90
25939;DHT22;13739;51.172;4.466;2023-02-22T05:06:30;5.90;99.90
25939;DHT22;13739;51.172;4.466;2023-02-22T05:08:56;5.80;99.90
25939;DHT22;13739;51.172;4.466;2023-02-22T05:11:22;5.90;99.90
25939;DHT22;13739;51.172;4.466;2023-02-22T05:13:48;6.00;99.90
25939;DHT22;13739;51.172;4.466;2023-02-22T05:16:14;6.10;99.90
25939;DHT22;13739;51.172;4.466;2023-02-22T05:18:40;6.20;99.90
25939;DHT22;13739;51.172;4.466;2023-02-22T05:21:06;6.20;99.90
25939;DHT22;13739;51.172;4.466;2023-02-22T05:23:32;6.10;99.90
25939;DHT22;13739;51.172;4.466;2023-02-22T05:25:58;6.10;99.90
25939;DHT22;13739;51.172;4.466;2023-02-22T05:28:24;6.00;99.90
25939;DHT22;13739;51.172;4.466;2023-02-22T05:30:50;6.00;99.90
25939;DHT22;13739;51.172;4.466;2023-02-22T05:33:16;6.00;99.90
25939;DHT22;13739;51.172;4.466;2023-02-22T05:35:42;6.10;99.90
25939;DHT22;13739;51.172;4.466;2023-02-22T05:38:09;6.00;99.90
25939;DHT22;13739;51.172;4.466;2023-02-22T05:40:36;5.90;99.90
25939;DHT22;13739;51.172;4.466;2023-02-22T05:43:02;6.00;99.90
25939;DHT22;13739;51.172;4.466;2023-02-22T05:45:28;6.00;99.90
25939;DHT22;13739;51.172;4.466;2023-02-22T05:47:54;6.00;99.90
25939;DHT22;13739;51.172;4.466;2023-02-22T05:50:21;5.90;99.90
25939;DHT22;13739;51.172;4.466;2023-02-22T05:52:47;6.00;99.90
25939;DHT22;13739;51.172;4.466;2023-02-22T05:55:16;6.10;99.90
25939;DHT22;13739;51.172;4.466;2023-02-22T05:57:42;6.00;99.90
25939;DHT22;13739;51.172;4.466;2023-02-22T06:00:13;6.00;99.90
25939;DHT22;13739;51.172;4.466;2023-02-22T06:02:40;6.00;99.90
25939;DHT22;13739;51.172;4.466;2023-02-22T06:05:06;6.00;99.90
25939;DHT22;13739;51.172;4.466;2023-02-22T06:07:32;6.00;99.90
25939;DHT22;13739;51.172;4.466;2023-02-22T06:09:57;5.90;99.90
25939;DHT22;13739;51.172;4.466;2023-02-22T06:12:23;5.80;99.90
25939;DHT22;13739;51.172;4.466;2023-02-22T06:14:49;6.00;99.90
25939;DHT22;13739;51.172;4.466;2023-02-22T06:17:15;5.90;99.90
25939;DHT22;13739;51.172;4.466;2023-02-22T06:19:41;5.90;99.90
25939;DHT22;13739;51.172;4.466;2023-02-22T06:22:07;5.90;99.90
25939;DHT22;13739;51.172;4.466;2023-02-22T06:24:33;5.80;99.90
25939;DHT22;13739;51.172;4.466;2023-02-22T06:27:00;5.60;99.90
25939;DHT22;13739;51.172;4.466;2023-02-22T06:29:27;5.60;99.90
25939;DHT22;13739;51.172;4.466;2023-02-22T06:31:53;5.60;99.90
25939;DHT22;13739;51.172;4.466;2023-02-22T06:34:19;5.60;99.90
25939;DHT22;13739;51.172;4.466;2023-02-22T06:36:47;5.60;99.90
25939;DHT22;13739;51.172;4.466;2023-02-22T06:39:15;5.70;99.90
25939;DHT22;13739;51.172;4.466;2023-02-22T06:41:42;5.60;99.90
25939;DHT22;13739;51.172;4.466;2023-02-22T06:44:09;5.60;99.90
25939;DHT22;13739;51.172;4.466;2023-02-22T06:46:35;5.70;99.90
25939;DHT22;13739;51.172;4.466;2023-02-22T06:49:01;5.70;99.90
25939;DHT22;13739;51.172;4.466;2023-02-22T06:51:27;5.70;99.90
25939;DHT22;13739;51.172;4.466;2023-02-22T06:53:53;5.70;99.90
25939;DHT22;13739;51.172;4.466;2023-02-22T06:56:19;5.60;99.90
25939;DHT22;13739;51.172;4.466;2023-02-22T06:58:45;5.70;99.90
25939;DHT22;13739;51.172;4.466;2023-02-22T07:01:10;5.50;99.90
25939;DHT22;13739;51.172;4.466;2023-02-22T07:03:37;5.50;99.90
25939;DHT22;13739;51.172;4.466;2023-02-22T07:06:03;5.70;99.90
25939;DHT22;13739;51.172;4.466;2023-02-22T07:08:29;5.80;99.90
25939;DHT22;13739;51.172;4.466;2023-02-22T07:10:55;5.60;99.90
25939;DHT22;13739;51.172;4.466;2023-02-22T07:13:21;5.80;99.90
25939;DHT22;13739;51.172;4.466;2023-02-22T07:15:46;5.80;99.90
25939;DHT22;13739;51.172;4.466;2023-02-22T07:18:12;5.70;99.90
25939;DHT22;13739;51.172;4.466;2023-02-22T07:20:39;5.70;99.90
25939;DHT22;13739;51.172;4.466;2023-02-22T07:23:05;5.90;99.90
25939;DHT22;13739;51.172;4.466;2023-02-22T07:25:30;5.80;99.90
25939;DHT22;13739;51.172;4.466;2023-02-22T07:27:57;5.90;99.90
25939;DHT22;13739;51.172;4.466;2023-02-22T07:30:30;5.90;99.90
25939;DHT22;13739;51.172;4.466;2023-02-22T07:33:01;5.90;99.90
25939;DHT22;13739;51.172;4.466;2023-02-22T07:35:33;5.80;99.90
25939;DHT22;13739;51.172;4.466;2023-02-22T07:38:02;5.80;99.90
25939;DHT22;13739;51.172;4.466;2023-02-22T07:40:28;5.90;99.90
25939;DHT22;13739;51.172;4.466;2023-02-22T07:45:20;5.80;99.90
25939;DHT22;13739;51.172;4.466;2023-02-22T07:47:49;5.90;99.90
25939;DHT22;13739;51.172;4.466;2023-02-22T07:50:16;5.90;99.90
25939;DHT22;13739;51.172;4.466;2023-02-22T07:52:50;6.10;99.90
25939;DHT22;13739;51.172;4.466;2023-02-22T07:55:18;6.30;99.90
25939;DHT22;13739;51.172;4.466;2023-02-22T07:57:45;6.20;99.90
25939;DHT22;13739;51.172;4.466;2023-02-22T08:00:13;6.20;99.90
25939;DHT22;13739;51.172;4.466;2023-02-22T08:02:41;6.10;99.90
25939;DHT22;13739;51.172;4.466;2023-02-22T08:05:08;6.20;99.90
25939;DHT22;13739;51.172;4.466;2023-02-22T08:07:36;6.20;99.90
25939;DHT22;13739;51.172;4.466;2023-02-22T08:10:03;6.30;99.90
25939;DHT22;13739;51.172;4.466;2023-02-22T08:12:32;6.40;99.90
25939;DHT22;13739;51.172;4.466;2023-02-22T08:14:58;6.60;99.90
25939;DHT22;13739;51.172;4.466;2023-02-22T08:17:23;6.70;99.90
25939;DHT22;13739;51.172;4.466;2023-02-22T08:19:49;6.70;99.90
25939;DHT22;13739;51.172;4.466;2023-02-22T08:22:16;6.80;99.90
25939;DHT22;13739;51.172;4.466;2023-02-22T08:24:43;6.80;99.90
25939;DHT22;13739;51.172;4.466;2023-02-22T08:27:09;6.80;99.90
25939;DHT22;13739;51.172;4.466;2023-02-22T08:29:34;6.80;99.90
25939;DHT22;13739;51.172;4.466;2023-02-22T08:52:43;7.40;99.90
25939;DHT22;13739;51.172;4.466;2023-02-22T08:55:09;7.30;99.90
25939;DHT22;13739;51.172;4.466;2023-02-22T08:57:35;7.20;99.90
25939;DHT22;13739;51.172;4.466;2023-02-22T09:00:01;7.30;99.90
25939;DHT22;13739;51.172;4.466;2023-02-22T09:02:27;7.30;99.90
25939;DHT22;13739;51.172;4.466;2023-02-22T09:04:53;7.20;99.90
25939;DHT22;13739;51.172;4.466;2023-02-22T09:07:18;7.10;99.90
25939;DHT22;13739;51.172;4.466;2023-02-22T09:09:44;7.20;99.90
25939;DHT22;13739;51.172;4.466;2023-02-22T09:12:10;7.40;99.90
25939;DHT22;13739;51.172;4.466;2023-02-22T09:14:36;7.80;99.90
25939;DHT22;13739;51.172;4.466;2023-02-22T09:17:03;7.40;99.90
25939;DHT22;13739;51.172;4.466;2023-02-22T09:19:29;7.30;99.90
25939;DHT22;13739;51.172;4.466;2023-02-22T09:21:57;7.50;99.90
25939;DHT22;13739;51.172;4.466;2023-02-22T09:24:25;7.60;99.90
25939;DHT22;13739;51.172;4.466;2023-02-22T09:26:51;7.80;99.90
25939;DHT22;13739;51.172;4.466;2023-02-22T09:29:34;7.70;99.90
25939;DHT22;13739;51.172;4.466;2023-02-22T09:34:37;7.90;99.90
25939;DHT22;13739;51.172;4.466;2023-02-22T09:37:10;7.80;99.90
25939;DHT22;13739;51.172;4.466;2023-02-22T09:39:36;7.60;99.90
25939;DHT22;13739;51.172;4.466;2023-02-22T09:45:06;7.70;99.90
25939;DHT22;13739;51.172;4.466;2023-02-22T09:47:44;7.60;99.90
25939;DHT22;13739;51.172;4.466;2023-02-22T09:50:44;7.60;99.90
25939;DHT22;13739;51.172;4.466;2023-02-22T09:55:50;7.90;99.90
25939;DHT22;13739;51.172;4.466;2023-02-22T09:58:48;8.10;99.90
25939;DHT22;13739;51.172;4.466;2023-02-22T10:04:38;8.40;99.90
25939;DHT22;13739;51.172;4.466;2023-02-22T10:07:39;8.40;99.90
25939;DHT22;13739;51.172;4.466;2023-02-22T10:10:15;8.60;99.90
25939;DHT22;13739;51.172;4.466;2023-02-22T10:13:22;8.50;99.90
25939;DHT22;13739;51.172;4.466;2023-02-22T10:16:05;8.70;99.90
25939;DHT22;13739;51.172;4.466;2023-02-22T10:26:33;9.10;99.90
25939;DHT22;13739;51.172;4.466;2023-02-22T10:29:17;9.10;99.90
25939;DHT22;13739;51.172;4.466;2023-02-22T10:31:46;9.20;99.90
25939;DHT22;13739;51.172;4.466;2023-02-22T10:34:18;9.20;99.90
25939;DHT22;13739;51.172;4.466;2023-02-22T10:36:48;9.30;99.90
25939;DHT22;13739;51.172;4.466;2023-02-22T10:39:31;9.50;99.90
25939;DHT22;13739;51.172;4.466;2023-02-22T10:42:01;9.50;99.90
25939;DHT22;13739;51.172;4.466;2023-02-22T10:44:34;9.60;99.90
25939;DHT22;13739;51.172;4.466;2023-02-22T10:47:03;9.80;99.90
25939;DHT22;13739;51.172;4.466;2023-02-22T10:49:52;10.00;99.90
25939;DHT22;13739;51.172;4.466;2023-02-22T10:52:29;10.20;99.90
25939;DHT22;13739;51.172;4.466;2023-02-22T10:54:57;10.40;99.90
25939;DHT22;13739;51.172;4.466;2023-02-22T10:57:27;10.30;99.90
25939;DHT22;13739;51.172;4.466;2023-02-22T10:59:53;10.10;99.90
25939;DHT22;13739;51.172;4.466;2023-02-22T11:02:23;10.20;99.90
25939;DHT22;13739;51.172;4.466;2023-02-22T11:04:51;10.40;99.90
25939;DHT22;13739;51.172;4.466;2023-02-22T11:07:24;10.30;99.90
25939;DHT22;13739;51.172;4.466;2023-02-22T11:10:00;10.20;99.90
25939;DHT22;13739;51.172;4.466;2023-02-22T11:12:32;10.20;99.90
25939;DHT22;13739;51.172;4.466;2023-02-22T11:17:48;10.70;99.90
25939;DHT22;13739;51.172;4.466;2023-02-22T11:22:54;11.10;99.90
25939;DHT22;13739;51.172;4.466;2023-02-22T11:25:34;11.00;99.90
25939;DHT22;13739;51.172;4.466;2023-02-22T11:28:20;11.00;99.90
25939;DHT22;13739;51.172;4.466;2023-02-22T11:30:56;11.10;99.90
25939;DHT22;13739;51.172;4.466;2023-02-22T11:33:24;11.00;99.90
25939;DHT22;13739;51.172;4.466;2023-02-22T11:35:55;11.10;99.90
25939;DHT22;13739;51.172;4.466;2023-02-22T11:38:26;11.00;99.90
25939;DHT22;13739;51.172;4.466;2023-02-22T11:41:16;11.00;99.90
25939;DHT22;13739;51.172;4.466;2023-02-22T11:43:47;11.00;99.90
25939;DHT22;13739;51.172;4.466;2023-02-22T11:48:53;11.00;99.90
25939;DHT22;13739;51.172;4.466;2023-02-22T11:51:25;11.00;99.90
25939;DHT22;13739;51.172;4.466;2023-02-22T11:57:01;11.10;99.90
25939;DHT22;13739;51.172;4.466;2023-02-22T12:02:46;11.10;99.90
25939;DHT22;13739;51.172;4.466;2023-02-22T12:13:53;11.20;99.90
25939;DHT22;13739;51.172;4.466;2023-02-22T12:19:31;11.30;99.90
25939;DHT22;13739;51.172;4.466;2023-02-22T12:22:09;11.40;99.90
25939;DHT22;13739;51.172;4.466;2023-02-22T12:25:04;11.50;99.90
25939;DHT22;13739;51.172;4.466;2023-02-22T12:27:51;11.60;99.90
25939;DHT22;13739;51.172;4.466;2023-02-22T12:30:38;11.80;99.90
25939;DHT22;13739;51.172;4.466;2023-02-22T12:33:12;11.90;99.90
25939;DHT22;13739;51.172;4.466;2023-02-22T12:35:42;12.00;99.90
25939;DHT22;13739;51.172;4.466;2023-02-22T12:38:29;12.10;99.90
25939;DHT22;13739;51.172;4.466;2023-02-22T12:41:06;12.10;99.90
25939;DHT22;13739;51.172;4.466;2023-02-22T12:46:16;12.30;99.90
25939;DHT22;13739;51.172;4.466;2023-02-22T12:49:05;12.20;99.90
25939;DHT22;13739;51.172;4.466;2023-02-22T13:02:59;12.20;99.90
25939;DHT22;13739;51.172;4.466;2023-02-22T13:05:29;12.10;99.90
25939;DHT22;13739;51.172;4.466;2023-02-22T13:08:28;12.10;99.90
25939;DHT22;13739;51.172;4.466;2023-02-22T13:11:20;12.10;99.90
25939;DHT22;13739;51.172;4.466;2023-02-22T13:16:53;11.80;99.90
25939;DHT22;13739;51.172;4.466;2023-02-22T13:19:29;11.90;99.90
25939;DHT22;13739;51.172;4.466;2023-02-22T13:27:40;11.90;99.90
25939;DHT22;13739;51.172;4.466;2023-02-22T13:30:26;12.10;99.90
25939;DHT22;13739;51.172;4.466;2023-02-22T13:35:58;11.80;99.90
25939;DHT22;13739;51.172;4.466;2023-02-22T13:39:23;11.90;99.90
25939;DHT22;13739;51.172;4.466;2023-02-22T13:42:05;11.90;99.90
25939;DHT22;13739;51.172;4.466;2023-02-22T13:50:29;11.90;99.90
25939;DHT22;13739;51.172;4.466;2023-02-22T13:52:57;11.80;99.90
25939;DHT22;13739;51.172;4.466;2023-02-22T13:55:30;12.00;99.90
25939;DHT22;13739;51.172;4.466;2023-02-22T13:58:05;12.00;99.90
25939;DHT22;13739;51.172;4.466;2023-02-22T14:00:42;12.10;99.90
25939;DHT22;13739;51.172;4.466;2023-02-22T14:16:29;11.70;99.90
25939;DHT22;13739;51.172;4.466;2023-02-22T14:19:15;11.70;99.90
25939;DHT22;13739;51.172;4.466;2023-02-22T14:22:03;11.60;99.90
25939;DHT22;13739;51.172;4.466;2023-02-22T14:24:41;11.60;99.90
25939;DHT22;13739;51.172;4.466;2023-02-22T14:27:07;11.60;99.90
25939;DHT22;13739;51.172;4.466;2023-02-22T14:29:34;11.60;99.90
25939;DHT22;13739;51.172;4.466;2023-02-22T14:32:05;11.60;99.90
25939;DHT22;13739;51.172;4.466;2023-02-22T14:34:55;11.50;99.90
25939;DHT22;13739;51.172;4.466;2023-02-22T14:37:37;11.50;99.90
25939;DHT22;13739;51.172;4.466;2023-02-22T14:40:10;11.60;99.90
25939;DHT22;13739;51.172;4.466;2023-02-22T14:43:32;11.50;99.90
25939;DHT22;13739;51.172;4.466;2023-02-22T14:45:53;11.50;99.90
25939;DHT22;13739;51.172;4.466;2023-02-22T14:48:31;11.40;99.90
25939;DHT22;13739;51.172;4.466;2023-02-22T14:51:22;11.20;99.90
25939;DHT22;13739;51.172;4.466;2023-02-22T14:53:59;11.30;99.90
25939;DHT22;13739;51.172;4.466;2023-02-22T14:56:36;11.20;99.90
25939;DHT22;13739;51.172;4.466;2023-02-22T14:59:20;11.30;99.90
25939;DHT22;13739;51.172;4.466;2023-02-22T15:01:48;11.10;99.90
25939;DHT22;13739;51.172;4.466;2023-02-22T15:04:24;11.00;99.90
25939;DHT22;13739;51.172;4.466;2023-02-22T15:06:51;10.90;99.90
25939;DHT22;13739;51.172;4.466;2023-02-22T15:09:29;10.70;99.90
25939;DHT22;13739;51.172;4.466;2023-02-22T15:14:28;10.60;99.90
25939;DHT22;13739;51.172;4.466;2023-02-22T15:17:00;10.70;99.90
25939;DHT22;13739;51.172;4.466;2023-02-22T15:19:30;10.40;99.90
25939;DHT22;13739;51.172;4.466;2023-02-22T15:21:59;10.10;99.90
25939;DHT22;13739;51.172;4.466;2023-02-22T15:24:32;10.10;99.90
25939;DHT22;13739;51.172;4.466;2023-02-22T15:27:05;10.10;99.90
25939;DHT22;13739;51.172;4.466;2023-02-22T15:29:36;10.30;99.90
25939;DHT22;13739;51.172;4.466;2023-02-22T15:32:38;10.30;99.90
25939;DHT22;13739;51.172;4.466;2023-02-22T15:35:17;10.30;99.90
25939;DHT22;13739;51.172;4.466;2023-02-22T15:37:44;10.20;99.90
25939;DHT22;13739;51.172;4.466;2023-02-22T15:40:16;10.40;99.90
25939;DHT22;13739;51.172;4.466;2023-02-22T15:42:52;10.40;99.90
25939;DHT22;13739;51.172;4.466;2023-02-22T15:45:22;10.20;99.90
25939;DHT22;13739;51.172;4.466;2023-02-22T15:47:50;10.20;99.90
25939;DHT22;13739;51.172;4.466;2023-02-22T15:55:15;10.00;99.90
25939;DHT22;13739;51.172;4.466;2023-02-22T15:57:41;10.10;99.90
25939;DHT22;13739;51.172;4.466;2023-02-22T16:00:19;10.20;99.90
25939;DHT22;13739;51.172;4.466;2023-02-22T16:02:45;10.10;99.90
25939;DHT22;13739;51.172;4.466;2023-02-22T16:05:13;10.20;99.90
25939;DHT22;13739;51.172;4.466;2023-02-22T16:07:45;10.20;99.90
25939;DHT22;13739;51.172;4.466;2023-02-22T16:10:22;10.20;99.90
25939;DHT22;13739;51.172;4.466;2023-02-22T16:12:48;10.40;99.90
25939;DHT22;13739;51.172;4.466;2023-02-22T16:15:16;10.50;99.90
25939;DHT22;13739;51.172;4.466;2023-02-22T16:17:42;10.50;99.90
25939;DHT22;13739;51.172;4.466;2023-02-22T16:22:39;10.40;99.90
25939;DHT22;13739;51.172;4.466;2023-02-22T16:27:45;10.20;99.90
25939;DHT22;13739;51.172;4.466;2023-02-22T16:30:29;10.30;99.90
25939;DHT22;13739;51.172;4.466;2023-02-22T16:32:57;10.20;99.90
25939;DHT22;13739;51.172;4.466;2023-02-22T16:35:27;10.30;99.90
25939;DHT22;13739;51.172;4.466;2023-02-22T16:37:57;10.20;99.90
25939;DHT22;13739;51.172;4.466;2023-02-22T16:40:27;10.30;99.90
25939;DHT22;13739;51.172;4.466;2023-02-22T16:42:58;10.10;99.90
25939;DHT22;13739;51.172;4.466;2023-02-22T16:45:24;10.00;99.90
25939;DHT22;13739;51.172;4.466;2023-02-22T16:47:50;10.10;99.90
25939;DHT22;13739;51.172;4.466;2023-02-22T16:50:18;10.10;99.90
25939;DHT22;13739;51.172;4.466;2023-02-22T16:52:44;10.10;99.90
25939;DHT22;13739;51.172;4.466;2023-02-22T16:55:12;10.30;99.90
25939;DHT22;13739;51.172;4.466;2023-02-22T16:57:40;10.30;99.90
25939;DHT22;13739;51.172;4.466;2023-02-22T17:00:15;10.20;99.90
25939;DHT22;13739;51.172;4.466;2023-02-22T17:02:41;10.20;99.90
25939;DHT22;13739;51.172;4.466;2023-02-22T17:05:11;10.10;99.90
25939;DHT22;13739;51.172;4.466;2023-02-22T17:07:37;10.00;99.90
25939;DHT22;13739;51.172;4.466;2023-02-22T17:10:05;10.10;99.90
25939;DHT22;13739;51.172;4.466;2023-02-22T17:12:31;10.00;99.90
25939;DHT22;13739;51.172;4.466;2023-02-22T17:14:57;10.00;99.90
25939;DHT22;13739;51.172;4.466;2023-02-22T17:17:23;10.10;99.90
25939;DHT22;13739;51.172;4.466;2023-02-22T17:19:51;10.00;99.90
25939;DHT22;13739;51.172;4.466;2023-02-22T17:22:18;10.00;99.90
25939;DHT22;13739;51.172;4.466;2023-02-22T17:24:45;10.10;99.90
25939;DHT22;13739;51.172;4.466;2023-02-22T17:27:11;10.10;99.90
25939;DHT22;13739;51.172;4.466;2023-02-22T17:29:37;10.00;99.90
25939;DHT22;13739;51.172;4.466;2023-02-22T17:32:06;10.00;99.90
25939;DHT22;13739;51.172;4.466;2023-02-22T17:34:32;10.10;99.90
25939;DHT22;13739;51.172;4.466;2023-02-22T17:36:57;10.00;99.90
25939;DHT22;13739;51.172;4.466;2023-02-22T17:39:23;10.00;99.90
25939;DHT22;13739;51.172;4.466;2023-02-22T17:41:51;10.10;99.90
25939;DHT22;13739;51.172;4.466;2023-02-22T17:44:25;10.10;99.90
25939;DHT22;13739;51.172;4.466;2023-02-22T17:46:52;10.20;99.90
25939;DHT22;13739;51.172;4.466;2023-02-22T17:49:17;9.90;99.90
25939;DHT22;13739;51.172;4.466;2023-02-22T17:51:43;9.80;99.90
25939;DHT22;13739;51.172;4.466;2023-02-22T17:54:17;9.90;99.90
25939;DHT22;13739;51.172;4.466;2023-02-22T17:56:43;10.00;99.90
25939;DHT22;13739;51.172;4.466;2023-02-22T17:59:08;9.90;99.90
25939;DHT22;13739;51.172;4.466;2023-02-22T18:01:34;10.00;99.90
25939;DHT22;13739;51.172;4.466;2023-02-22T18:04:01;9.90;99.90
25939;DHT22;13739;51.172;4.466;2023-02-22T18:06:29;9.90;99.90
25939;DHT22;13739;51.172;4.466;2023-02-22T18:08:56;9.80;99.90
25939;DHT22;13739;51.172;4.466;2023-02-22T18:11:24;9.80;99.90
25939;DHT22;13739;51.172;4.466;2023-02-22T18:13:55;10.00;99.90
25939;DHT22;13739;51.172;4.466;2023-02-22T18:16:22;10.00;99.90
25939;DHT22;13739;51.172;4.466;2023-02-22T18:18:49;10.10;99.90
25939;DHT22;13739;51.172;4.466;2023-02-22T18:21:15;10.00;99.90
25939;DHT22;13739;51.172;4.466;2023-02-22T18:23:41;10.00;99.90
25939;DHT22;13739;51.172;4.466;2023-02-22T18:26:17;9.90;99.90
25939;DHT22;13739;51.172;4.466;2023-02-22T18:28:42;9.90;99.90
25939;DHT22;13739;51.172;4.466;2023-02-22T18:31:13;9.90;99.90